createdAt,value
2022-08-01T00:01:56.087Z,15.25
2022-08-01T00:04:22.894Z,15.25
2022-08-01T00:06:49.436Z,15.28
2022-08-01T00:09:23.768Z,15.28
2022-08-01T00:11:59.620Z,15.28
2022-08-01T00:14:32.689Z,15.26
2022-08-01T00:17:05.123Z,15.25
2022-08-01T00:19:32.247Z,15.23
2022-08-01T00:21:59.098Z,15.22
2022-08-01T00:24:25.844Z,15.18
2022-08-01T00:26:52.476Z,15.15
2022-08-01T00:30:10.427Z,15.15
2022-08-01T00:32:05.819Z,15.17
2022-08-01T00:34:32.855Z,15.19
2022-08-01T00:36:59.382Z,15.21
2022-08-01T00:39:26.076Z,15.22
2022-08-01T00:41:59.677Z,15.24
2022-08-01T00:44:27.970Z,15.27
2022-08-01T00:46:54.568Z,15.27
2022-08-01T00:49:21.268Z,15.26
2022-08-01T00:51:48.550Z,15.28
2022-08-01T00:54:17.064Z,15.28
2022-08-01T00:56:44.673Z,15.27
2022-08-01T00:59:14.122Z,15.29
2022-08-01T01:01:46.580Z,15.30
2022-08-01T01:04:13.937Z,15.30
2022-08-01T01:06:43.356Z,15.30
2022-08-01T01:09:30.351Z,15.30
2022-08-01T01:12:38.454Z,15.31
2022-08-01T01:15:19.068Z,15.32
2022-08-01T01:17:52.104Z,15.33
2022-08-01T01:20:21.503Z,15.34
2022-08-01T01:22:54.235Z,15.34
2022-08-01T01:25:20.800Z,15.33
2022-08-01T01:28:13.324Z,15.33
2022-08-01T01:30:43.932Z,15.31
2022-08-01T01:33:13.872Z,15.29
2022-08-01T01:35:47.305Z,15.28
2022-08-01T01:38:19.866Z,15.27
2022-08-01T01:40:48.957Z,15.27
2022-08-01T01:43:17.609Z,15.29
2022-08-01T01:45:46.542Z,15.30
2022-08-01T01:48:19.446Z,15.30
2022-08-01T01:50:47.811Z,15.32
2022-08-01T01:53:18.739Z,15.33
2022-08-01T01:55:49.381Z,15.35
2022-08-01T01:58:18.802Z,15.35
2022-08-01T02:00:47.762Z,15.35
2022-08-01T02:03:15.446Z,15.37
2022-08-01T02:05:43.181Z,15.37
2022-08-01T02:08:11.455Z,15.38
2022-08-01T02:10:39.915Z,15.39
2022-08-01T02:13:07.258Z,15.38
2022-08-01T02:15:37.270Z,15.37
2022-08-01T02:18:04.073Z,15.36
2022-08-01T02:20:32.089Z,15.34
2022-08-01T02:23:11.924Z,15.31
2022-08-01T02:26:09.691Z,15.28
2022-08-01T02:29:03.610Z,15.27
2022-08-01T02:31:33.748Z,15.25
2022-08-01T02:34:05.365Z,15.22
2022-08-01T02:36:35.013Z,15.19
2022-08-01T02:39:09.949Z,15.17
2022-08-01T02:41:41.913Z,15.15
2022-08-01T02:44:11.852Z,15.12
2022-08-01T02:46:44.630Z,15.11
2022-08-01T02:49:13.477Z,15.08
2022-08-01T02:51:42.087Z,15.09
2022-08-01T02:54:11.202Z,15.06
2022-08-01T02:56:39.415Z,15.01
2022-08-01T02:59:10.254Z,14.98
2022-08-01T03:01:37.687Z,14.96
2022-08-01T03:04:06.271Z,14.94
2022-08-01T03:06:34.965Z,14.92
2022-08-01T03:09:04.164Z,14.92
2022-08-01T03:11:31.889Z,14.94
2022-08-01T03:14:02.656Z,14.95
2022-08-01T03:16:30.792Z,14.96
2022-08-01T03:18:58.823Z,14.98
2022-08-01T03:21:27.072Z,14.98
2022-08-01T03:23:56.618Z,14.98
2022-08-01T03:26:26.011Z,15.00
2022-08-01T03:28:56.870Z,15.01
2022-08-01T03:31:24.801Z,15.03
2022-08-01T03:33:51.836Z,15.06
2022-08-01T03:36:24.065Z,15.08
2022-08-01T03:38:54.704Z,15.12
2022-08-01T03:41:23.186Z,15.21
2022-08-01T03:43:56.381Z,15.28
2022-08-01T03:46:33.979Z,15.31
2022-08-01T03:49:07.452Z,15.34
2022-08-01T03:51:34.637Z,15.39
2022-08-01T03:54:03.022Z,15.44
2022-08-01T03:56:31.127Z,15.44
2022-08-01T03:58:58.284Z,15.51
2022-08-01T04:01:25.579Z,15.56
2022-08-01T04:03:52.667Z,15.59
2022-08-01T04:06:19.416Z,15.62
2022-08-01T04:08:46.795Z,15.65
2022-08-01T04:11:13.365Z,15.62
2022-08-01T04:13:40.157Z,15.68
2022-08-01T04:16:11.092Z,15.70
2022-08-01T04:18:37.741Z,15.71
2022-08-01T04:21:04.484Z,15.80
2022-08-01T04:23:35.726Z,15.93
2022-08-01T04:26:05.599Z,16.06
2022-08-01T04:28:34.435Z,16.08
2022-08-01T04:31:02.335Z,16.15
2022-08-01T04:33:31.421Z,16.26
2022-08-01T04:36:03.653Z,16.33
2022-08-01T04:38:34.727Z,16.46
2022-08-01T04:41:08.976Z,16.58
2022-08-01T04:43:38.486Z,16.65
2022-08-01T04:46:09.137Z,16.77
2022-08-01T04:48:38.543Z,16.92
2022-08-01T04:51:12.203Z,17.04
2022-08-01T04:53:39.073Z,17.18
2022-08-01T04:56:05.888Z,17.28
2022-08-01T04:58:32.490Z,17.42
2022-08-01T05:00:59.080Z,17.50
2022-08-01T05:03:25.740Z,17.56
2022-08-01T05:05:52.386Z,17.58
2022-08-01T05:08:19.063Z,17.71
2022-08-01T05:10:45.879Z,17.87
2022-08-01T05:13:12.446Z,17.93
2022-08-01T05:15:39.165Z,18.01
2022-08-01T05:18:08.553Z,18.19
2022-08-01T05:20:35.630Z,18.45
2022-08-01T05:23:02.371Z,18.44
2022-08-01T05:25:56.295Z,18.51
2022-08-01T05:28:19.025Z,18.70
2022-08-01T05:30:46.460Z,18.90
2022-08-01T05:33:13.044Z,19.06
2022-08-01T05:35:48.907Z,19.30
2022-08-01T05:38:16.723Z,19.93
2022-08-01T05:40:43.478Z,20.43
2022-08-01T05:43:10.273Z,21.00
2022-08-01T05:45:36.787Z,21.41
2022-08-01T05:48:03.599Z,21.57
2022-08-01T05:50:30.154Z,21.76
2022-08-01T05:52:56.883Z,21.66
2022-08-01T05:55:23.537Z,21.56
2022-08-01T05:57:50.262Z,21.55
2022-08-01T06:00:16.871Z,21.60
2022-08-01T06:02:43.928Z,21.76
2022-08-01T06:05:13.227Z,22.15
2022-08-01T06:07:40.515Z,22.62
2022-08-01T06:10:08.539Z,23.08
2022-08-01T06:12:35.776Z,23.74
2022-08-01T06:15:03.519Z,24.01
2022-08-01T06:17:30.159Z,23.97
2022-08-01T06:19:56.909Z,23.76
2022-08-01T06:22:23.848Z,23.44
2022-08-01T06:24:51.307Z,23.68
2022-08-01T06:27:21.516Z,23.71
2022-08-01T06:29:53.432Z,23.55
2022-08-01T06:32:26.322Z,23.34
2022-08-01T06:34:55.559Z,23.17
2022-08-01T06:37:22.624Z,23.12
2022-08-01T06:39:49.898Z,23.09
2022-08-01T06:42:16.646Z,23.45
2022-08-01T06:44:43.184Z,23.90
2022-08-01T06:47:09.724Z,24.25
2022-08-01T06:49:36.294Z,24.50
2022-08-01T06:52:03.259Z,24.84
2022-08-01T06:54:30.264Z,24.68
2022-08-01T06:56:56.812Z,24.51
2022-08-01T06:59:23.441Z,24.43
2022-08-01T07:01:50.086Z,24.44
2022-08-01T07:04:16.731Z,24.67
2022-08-01T07:06:43.333Z,24.96
2022-08-01T07:09:14.044Z,25.31
2022-08-01T07:11:41.880Z,25.12
2022-08-01T07:14:08.747Z,24.60
2022-08-01T07:16:35.751Z,24.32
2022-08-01T07:19:02.415Z,24.16
2022-08-01T07:21:38.862Z,24.14
2022-08-01T07:24:12.967Z,24.38
2022-08-01T07:26:52.129Z,24.35
2022-08-01T07:29:20.935Z,24.24
2022-08-01T07:31:47.679Z,24.22
2022-08-01T07:34:14.211Z,23.95
2022-08-01T07:36:40.862Z,23.71
2022-08-01T07:39:07.386Z,23.40
2022-08-01T07:41:53.257Z,23.51
2022-08-01T07:44:20.855Z,24.16
2022-08-01T07:46:47.604Z,24.41
2022-08-01T07:49:14.167Z,24.20
2022-08-01T07:51:41.099Z,23.77
2022-08-01T07:54:07.742Z,23.72
2022-08-01T07:56:34.385Z,23.40
2022-08-01T07:59:00.929Z,22.84
2022-08-01T08:01:27.586Z,22.60
2022-08-01T08:03:54.315Z,22.68
2022-08-01T08:06:21.058Z,22.90
2022-08-01T08:08:47.626Z,23.01
2022-08-01T08:11:14.234Z,23.00
2022-08-01T08:13:40.880Z,23.03
2022-08-01T08:16:07.453Z,23.22
2022-08-01T08:18:34.163Z,23.62
2022-08-01T08:21:06.208Z,24.04
2022-08-01T08:23:42.251Z,24.28
2022-08-01T08:26:13.972Z,24.30
2022-08-01T08:28:40.911Z,24.27
2022-08-01T08:31:25.674Z,23.94
2022-08-01T08:33:55.494Z,23.97
2022-08-01T08:36:22.134Z,24.16
2022-08-01T08:38:58.604Z,23.92
2022-08-01T08:41:25.975Z,24.31
2022-08-01T08:43:52.511Z,24.64
2022-08-01T08:46:27.993Z,24.71
2022-08-01T08:48:57.333Z,24.64
2022-08-01T08:51:27.815Z,24.53
2022-08-01T08:53:58.837Z,24.32
2022-08-01T08:56:26.398Z,24.23
2022-08-01T08:58:55.303Z,24.23
2022-08-01T09:01:22.845Z,24.42
2022-08-01T09:03:49.891Z,24.50
2022-08-01T09:06:16.413Z,24.56
2022-08-01T09:08:43.107Z,24.44
2022-08-01T09:11:09.740Z,24.48
2022-08-01T09:13:36.444Z,24.58
2022-08-01T09:16:03.234Z,24.62
2022-08-01T09:18:38.012Z,24.65
2022-08-01T09:21:07.753Z,24.73
2022-08-01T09:23:54.121Z,24.75
2022-08-01T09:26:35.640Z,24.82
2022-08-01T09:29:08.465Z,24.74
2022-08-01T09:31:42.255Z,24.47
2022-08-01T09:34:15.782Z,24.54
2022-08-01T09:36:54.405Z,24.74
2022-08-01T09:39:23.351Z,24.98
2022-08-01T09:41:50.242Z,25.22
2022-08-01T09:44:18.521Z,25.25
2022-08-01T09:46:57.795Z,25.29
2022-08-01T09:49:50.558Z,25.30
2022-08-01T09:52:25.652Z,25.21
2022-08-01T09:55:01.557Z,25.03
2022-08-01T09:57:29.931Z,25.09
2022-08-01T10:00:01.399Z,25.02
2022-08-01T10:02:41.306Z,24.89
2022-08-01T10:05:10.586Z,24.95
2022-08-01T10:07:57.991Z,24.87
2022-08-01T10:10:29.044Z,24.84
2022-08-01T10:12:58.109Z,24.86
2022-08-01T10:15:36.372Z,24.91
2022-08-01T10:18:16.099Z,25.13
2022-08-01T10:20:44.023Z,25.21
2022-08-01T10:23:12.092Z,25.21
2022-08-01T10:25:46.990Z,25.22
2022-08-01T10:28:21.418Z,25.16
2022-08-01T10:30:50.760Z,25.08
2022-08-01T10:33:20.040Z,25.20
2022-08-01T10:36:08.564Z,25.09
2022-08-01T10:38:37.128Z,25.15
2022-08-01T10:41:06.785Z,25.13
2022-08-01T10:43:36.279Z,25.01
2022-08-01T10:46:05.085Z,25.08
2022-08-01T10:49:02.076Z,25.31
2022-08-01T10:51:52.904Z,25.43
2022-08-01T10:54:16.422Z,25.35
2022-08-01T10:56:48.620Z,25.35
2022-08-01T10:59:50.940Z,25.40
2022-08-01T11:02:09.182Z,25.48
2022-08-01T11:04:38.557Z,25.53
2022-08-01T11:07:10.149Z,25.57
2022-08-01T11:09:45.953Z,25.67
2022-08-01T11:12:24.894Z,25.78
2022-08-01T11:15:02.681Z,25.54
2022-08-01T11:17:47.050Z,25.32
2022-08-01T11:20:17.374Z,25.27
2022-08-01T11:23:03.222Z,25.41
2022-08-01T11:26:06.724Z,25.74
2022-08-01T11:28:30.093Z,25.99
2022-08-01T11:31:07.913Z,26.09
2022-08-01T11:33:41.128Z,26.19
2022-08-01T11:36:14.852Z,26.32
2022-08-01T11:39:00.659Z,26.33
2022-08-01T11:41:37.170Z,26.40
2022-08-01T11:44:14.266Z,26.36
2022-08-01T11:47:02.059Z,26.44
2022-08-01T11:49:39.221Z,26.67
2022-08-01T11:52:09.395Z,26.45
2022-08-01T11:54:47.070Z,26.37
2022-08-01T11:57:22.932Z,26.56
2022-08-01T12:00:03.647Z,26.67
2022-08-01T12:02:33.785Z,26.65
2022-08-01T12:05:11.955Z,26.46
2022-08-01T12:07:40.731Z,26.49
2022-08-01T12:10:16.409Z,26.55
2022-08-01T12:12:47.442Z,26.69
2022-08-01T12:15:14.658Z,27.06
2022-08-01T12:17:58.957Z,27.44
2022-08-01T12:20:32.105Z,27.60
2022-08-01T12:23:04.237Z,27.51
2022-08-01T12:25:30.861Z,27.55
2022-08-01T12:28:04.805Z,27.67
2022-08-01T12:30:32.735Z,27.87
2022-08-01T12:32:59.495Z,27.85
2022-08-01T12:35:29.439Z,27.69
2022-08-01T12:37:59.005Z,27.67
2022-08-01T12:40:34.472Z,27.52
2022-08-01T12:43:03.634Z,27.39
2022-08-01T12:45:39.660Z,27.52
2022-08-01T12:48:11.970Z,27.51
2022-08-01T12:50:43.447Z,27.60
2022-08-01T12:53:10.873Z,27.82
2022-08-01T12:55:58.733Z,27.69
2022-08-01T12:58:32.295Z,27.48
2022-08-01T13:01:12.554Z,27.36
2022-08-01T13:03:40.676Z,27.16
2022-08-01T13:06:12.761Z,27.21
2022-08-01T13:08:39.342Z,27.10
2022-08-01T13:11:13.234Z,27.09
2022-08-01T13:13:44.567Z,27.19
2022-08-01T13:16:16.302Z,27.28
2022-08-01T13:18:58.334Z,27.41
2022-08-01T13:21:30.053Z,27.43
2022-08-01T13:24:16.714Z,27.43
2022-08-01T13:26:54.011Z,27.57
2022-08-01T13:29:23.239Z,27.51
2022-08-01T13:31:50.466Z,27.28
2022-08-01T13:34:17.579Z,27.14
2022-08-01T13:36:49.016Z,27.06
2022-08-01T13:39:16.859Z,26.84
2022-08-01T13:41:44.294Z,26.71
2022-08-01T13:44:11.252Z,26.65
2022-08-01T13:46:39.214Z,26.61
2022-08-01T13:49:15.936Z,26.57
2022-08-01T13:51:43.595Z,26.48
2022-08-01T13:54:10.279Z,26.43
2022-08-01T13:56:36.890Z,26.36
2022-08-01T13:59:03.834Z,26.21
2022-08-01T14:01:34.157Z,26.09
2022-08-01T14:04:02.512Z,26.05
2022-08-01T14:06:29.971Z,26.03
2022-08-01T14:08:56.519Z,25.99
2022-08-01T14:11:23.607Z,26.03
2022-08-01T14:13:50.275Z,26.09
2022-08-01T14:16:18.671Z,26.09
2022-08-01T14:18:46.291Z,26.05
2022-08-01T14:21:13.775Z,26.03
2022-08-01T14:23:40.394Z,26.03
2022-08-01T14:26:11.834Z,26.08
2022-08-01T14:28:40.147Z,26.16
2022-08-01T14:31:07.867Z,26.33
2022-08-01T14:33:34.922Z,26.34
2022-08-01T14:36:20.624Z,26.37
2022-08-01T14:38:48.551Z,26.36
2022-08-01T14:41:15.952Z,26.33
2022-08-01T14:43:42.893Z,26.37
2022-08-01T14:46:09.765Z,26.34
2022-08-01T14:48:36.685Z,26.27
2022-08-01T14:51:03.346Z,26.22
2022-08-01T14:53:30.285Z,26.05
2022-08-01T14:55:57.126Z,25.93
2022-08-01T14:58:23.627Z,25.88
2022-08-01T15:00:51.696Z,25.74
2022-08-01T15:03:22.013Z,25.74
2022-08-01T15:05:48.814Z,25.74
2022-08-01T15:08:15.458Z,25.71
2022-08-01T15:10:42.000Z,25.75
2022-08-01T15:13:08.644Z,25.83
2022-08-01T15:15:35.203Z,25.81
2022-08-01T15:18:01.715Z,25.81
2022-08-01T15:20:28.291Z,25.81
2022-08-01T15:22:55.360Z,25.87
2022-08-01T15:25:22.259Z,25.86
2022-08-01T15:27:49.219Z,25.80
2022-08-01T15:30:16.060Z,25.83
2022-08-01T15:32:42.702Z,25.86
2022-08-01T15:35:09.581Z,25.86
2022-08-01T15:37:40.840Z,25.81
2022-08-01T15:40:10.591Z,25.92
2022-08-01T15:42:37.259Z,26.07
2022-08-01T15:45:04.311Z,26.30
2022-08-01T15:47:31.778Z,26.42
2022-08-01T15:49:58.386Z,26.70
2022-08-01T15:52:31.621Z,27.36
2022-08-01T15:54:59.077Z,27.81
2022-08-01T15:57:25.891Z,27.84
2022-08-01T15:59:52.806Z,27.96
2022-08-01T16:02:19.551Z,27.84
2022-08-01T16:04:46.063Z,27.73
2022-08-01T16:07:12.585Z,27.57
2022-08-01T16:09:39.546Z,27.38
2022-08-01T16:12:06.832Z,27.16
2022-08-01T16:14:33.549Z,26.97
2022-08-01T16:17:00.186Z,26.84
2022-08-01T16:19:26.755Z,26.69
2022-08-01T16:21:53.399Z,27.03
2022-08-01T16:24:20.221Z,27.87
2022-08-01T16:26:47.064Z,28.59
2022-08-01T16:29:13.604Z,28.94
2022-08-01T16:31:53.046Z,29.03
2022-08-01T16:34:27.164Z,28.97
2022-08-01T16:36:55.904Z,28.52
2022-08-01T16:39:23.685Z,28.14
2022-08-01T16:41:55.146Z,27.81
2022-08-01T16:44:26.775Z,27.50
2022-08-01T16:47:01.339Z,27.24
2022-08-01T16:49:27.926Z,27.06
2022-08-01T16:51:54.539Z,26.74
2022-08-01T16:54:25.559Z,26.35
2022-08-01T16:56:53.403Z,25.93
2022-08-01T16:59:20.420Z,25.64
2022-08-01T17:01:59.462Z,25.40
2022-08-01T17:04:31.665Z,25.13
2022-08-01T17:06:58.846Z,24.98
2022-08-01T17:09:25.490Z,24.88
2022-08-01T17:11:52.242Z,24.73
2022-08-01T17:14:18.919Z,24.58
2022-08-01T17:16:45.565Z,24.47
2022-08-01T17:19:12.195Z,24.27
2022-08-01T17:21:42.437Z,24.12
2022-08-01T17:24:09.898Z,23.92
2022-08-01T17:26:38.200Z,23.76
2022-08-01T17:29:05.051Z,23.63
2022-08-01T17:31:31.776Z,23.47
2022-08-01T17:33:58.418Z,23.24
2022-08-01T17:36:25.048Z,23.05
2022-08-01T17:38:51.764Z,22.93
2022-08-01T17:41:18.443Z,22.80
2022-08-01T17:43:45.081Z,22.63
2022-08-01T17:46:11.742Z,22.49
2022-08-01T17:48:38.394Z,22.39
2022-08-01T17:51:04.955Z,22.26
2022-08-01T17:53:31.648Z,22.11
2022-08-01T17:55:58.589Z,21.96
2022-08-01T17:58:49.151Z,21.80
2022-08-01T18:01:15.283Z,21.63
2022-08-01T18:03:42.210Z,21.51
2022-08-01T18:06:10.600Z,21.39
2022-08-01T18:08:37.298Z,21.28
2022-08-01T18:11:03.967Z,21.17
2022-08-01T18:13:30.615Z,21.07
2022-08-01T18:15:57.938Z,21.00
2022-08-01T18:18:33.128Z,20.91
2022-08-01T18:21:04.543Z,20.83
2022-08-01T18:23:32.034Z,20.77
2022-08-01T18:25:58.638Z,20.71
2022-08-01T18:28:33.645Z,20.65
2022-08-01T18:31:02.193Z,20.58
2022-08-01T18:33:28.911Z,20.52
2022-08-01T18:35:55.457Z,20.46
2022-08-01T18:38:27.375Z,20.40
2022-08-01T18:40:54.062Z,20.34
2022-08-01T18:43:20.634Z,20.30
2022-08-01T18:45:47.354Z,20.28
2022-08-01T18:48:14.319Z,20.25
2022-08-01T18:50:41.077Z,20.22
2022-08-01T18:53:07.692Z,20.19
2022-08-01T18:55:34.335Z,20.18
2022-08-01T18:58:01.116Z,20.17
2022-08-01T19:00:27.826Z,20.15
2022-08-01T19:02:54.353Z,20.10
2022-08-01T19:05:21.212Z,20.05
2022-08-01T19:08:06.017Z,20.02
2022-08-01T19:10:35.604Z,20.01
2022-08-01T19:13:02.375Z,19.98
2022-08-01T19:15:29.089Z,19.94
2022-08-01T19:17:55.932Z,19.89
2022-08-01T19:20:22.632Z,19.83
2022-08-01T19:22:49.324Z,19.76
2022-08-01T19:25:16.070Z,19.66
2022-08-01T19:27:47.948Z,19.58
2022-08-01T19:30:15.925Z,19.51
2022-08-01T19:32:44.499Z,19.40
2022-08-01T19:35:13.400Z,19.30
2022-08-01T19:37:42.216Z,19.23
2022-08-01T19:40:09.209Z,19.15
2022-08-01T19:42:42.339Z,19.07
2022-08-01T19:45:09.967Z,19.01
2022-08-01T19:47:55.974Z,18.96
2022-08-01T19:50:28.993Z,18.94
2022-08-01T19:52:56.748Z,18.91
2022-08-01T19:55:29.062Z,18.88
2022-08-01T19:58:25.728Z,18.86
2022-08-01T20:00:44.883Z,18.86
2022-08-01T20:03:15.017Z,18.86
2022-08-01T20:05:42.624Z,18.86
2022-08-01T20:08:09.418Z,18.80
2022-08-01T20:10:36.750Z,18.73
2022-08-01T20:13:04.529Z,18.66
2022-08-01T20:15:31.371Z,18.62
2022-08-01T20:17:58.502Z,18.59
2022-08-01T20:20:25.809Z,18.57
2022-08-01T20:22:56.929Z,18.56
2022-08-01T20:25:32.054Z,18.54
2022-08-01T20:28:06.604Z,18.51
2022-08-01T20:30:33.341Z,18.49
2022-08-01T20:33:00.259Z,18.46
2022-08-01T20:35:51.722Z,18.44
2022-08-01T20:38:17.645Z,18.41
2022-08-01T20:40:44.586Z,18.38
2022-08-01T20:43:12.359Z,18.37
2022-08-01T20:45:39.409Z,18.35
2022-08-01T20:48:08.128Z,18.32
2022-08-01T20:50:53.737Z,18.28
2022-08-01T20:53:23.186Z,18.24
2022-08-01T20:55:59.571Z,18.21
2022-08-01T20:58:37.586Z,18.18
2022-08-01T21:01:04.774Z,18.15
2022-08-01T21:04:22.207Z,18.12
2022-08-01T21:07:02.736Z,18.09
2022-08-01T21:09:36.879Z,18.08
2022-08-01T21:12:10.704Z,18.09
2022-08-01T21:14:47.745Z,18.10
2022-08-01T21:17:22.792Z,18.10
2022-08-01T21:19:55.549Z,18.12
2022-08-01T21:22:35.532Z,18.13
2022-08-01T21:25:07.191Z,18.14
2022-08-01T21:27:35.542Z,18.14
2022-08-01T21:30:07.585Z,18.13
2022-08-01T21:32:35.915Z,18.13
2022-08-01T21:35:05.200Z,18.11
2022-08-01T21:37:32.234Z,18.06
2022-08-01T21:39:59.499Z,18.01
2022-08-01T21:42:28.325Z,17.97
2022-08-01T21:44:58.941Z,17.94
2022-08-01T21:47:29.445Z,17.90
2022-08-01T21:50:01.661Z,17.86
2022-08-01T21:52:37.722Z,17.82
2022-08-01T21:55:11.007Z,17.77
2022-08-01T21:58:18.310Z,17.74
2022-08-01T22:00:52.583Z,17.72
2022-08-01T22:03:40.731Z,17.72
2022-08-01T22:06:08.074Z,17.73
2022-08-01T22:08:37.984Z,17.74
2022-08-01T22:11:07.587Z,17.74
2022-08-01T22:13:35.584Z,17.74
2022-08-01T22:16:04.861Z,17.75
2022-08-01T22:18:33.869Z,17.75
2022-08-01T22:21:02.895Z,17.75
2022-08-01T22:23:29.728Z,17.75
2022-08-01T22:25:56.709Z,17.77
2022-08-01T22:28:23.733Z,17.78
2022-08-01T22:30:52.340Z,17.78
2022-08-01T22:33:19.884Z,17.78
2022-08-01T22:35:51.235Z,17.75
2022-08-01T22:38:19.963Z,17.74
2022-08-01T22:40:53.337Z,17.73
2022-08-01T22:43:26.117Z,17.73
2022-08-01T22:46:08.118Z,17.72
2022-08-01T22:48:51.094Z,17.72
2022-08-01T22:51:38.188Z,17.70
2022-08-01T22:54:07.959Z,17.68
2022-08-01T22:56:41.602Z,17.65
2022-08-01T22:59:13.790Z,17.65
2022-08-01T23:01:47.613Z,17.65
2022-08-01T23:04:33.003Z,17.64
2022-08-01T23:07:05.331Z,17.60
2022-08-01T23:09:52.990Z,17.57
2022-08-01T23:12:24.677Z,17.54
2022-08-01T23:14:59.248Z,17.51
2022-08-01T23:17:29.198Z,17.49
2022-08-01T23:20:01.832Z,17.45
2022-08-01T23:22:31.713Z,17.41
2022-08-01T23:25:03.916Z,17.37
2022-08-01T23:27:51.597Z,17.31
2022-08-01T23:30:33.275Z,17.23
2022-08-01T23:33:00.276Z,17.18
2022-08-01T23:35:28.199Z,17.12
2022-08-01T23:38:02.306Z,17.06
2022-08-01T23:40:33.595Z,17.01
2022-08-01T23:43:01.901Z,16.96
2022-08-01T23:45:38.217Z,16.91
2022-08-01T23:48:15.970Z,16.87
2022-08-01T23:50:42.786Z,16.85
2022-08-01T23:53:09.735Z,16.84
2022-08-01T23:55:37.937Z,16.82
2022-08-01T23:58:05.894Z,16.79
